sensor_id;sensor_type;location;lat;lon;timestamp;P1;durP1;ratioP1;P2;durP2;ratioP2
76795;SDS011;65745;50.278;18.192;2023-07-09T00:01:06;9.00;;;8.10;;
76795;SDS011;65745;50.278;18.192;2023-07-09T00:03:41;9.80;;;7.90;;
76795;SDS011;65745;50.278;18.192;2023-07-09T00:06:13;10.10;;;8.50;;
76795;SDS011;65745;50.278;18.192;2023-07-09T00:08:48;10.40;;;9.10;;
76795;SDS011;65745;50.278;18.192;2023-07-09T00:11:21;10.50;;;8.70;;
76795;SDS011;65745;50.278;18.192;2023-07-09T00:13:53;10.50;;;9.30;;
76795;SDS011;65745;50.278;18.192;2023-07-09T00:16:25;9.90;;;8.10;;
76795;SDS011;65745;50.278;18.192;2023-07-09T00:18:58;9.80;;;8.80;;
76795;SDS011;65745;50.278;18.192;2023-07-09T00:21:31;9.90;;;8.80;;
76795;SDS011;65745;50.278;18.192;2023-07-09T00:24:04;8.40;;;7.60;;
76795;SDS011;65745;50.278;18.192;2023-07-09T00:26:36;8.50;;;7.60;;
76795;SDS011;65745;50.278;18.192;2023-07-09T00:29:10;8.90;;;8.00;;
76795;SDS011;65745;50.278;18.192;2023-07-09T00:31:43;9.30;;;7.60;;
76795;SDS011;65745;50.278;18.192;2023-07-09T00:34:15;9.70;;;8.40;;
76795;SDS011;65745;50.278;18.192;2023-07-09T00:36:51;8.30;;;7.50;;
76795;SDS011;65745;50.278;18.192;2023-07-09T00:39:23;8.80;;;6.90;;
76795;SDS011;65745;50.278;18.192;2023-07-09T00:41:56;8.40;;;7.50;;
76795;SDS011;65745;50.278;18.192;2023-07-09T00:44:28;9.10;;;7.00;;
76795;SDS011;65745;50.278;18.192;2023-07-09T00:50:06;9.00;;;8.10;;
76795;SDS011;65745;50.278;18.192;2023-07-09T00:52:49;9.30;;;8.20;;
76795;SDS011;65745;50.278;18.192;2023-07-09T00:55:25;10.10;;;8.60;;
76795;SDS011;65745;50.278;18.192;2023-07-09T00:58:03;9.60;;;8.70;;
76795;SDS011;65745;50.278;18.192;2023-07-09T01:00:41;10.60;;;7.40;;
76795;SDS011;65745;50.278;18.192;2023-07-09T01:03:20;9.90;;;7.70;;
76795;SDS011;65745;50.278;18.192;2023-07-09T01:05:56;8.70;;;7.80;;
76795;SDS011;65745;50.278;18.192;2023-07-09T01:08:30;9.70;;;8.50;;
76795;SDS011;65745;50.278;18.192;2023-07-09T01:11:05;10.60;;;9.20;;
76795;SDS011;65745;50.278;18.192;2023-07-09T01:13:45;10.80;;;9.30;;
76795;SDS011;65745;50.278;18.192;2023-07-09T01:16:17;9.40;;;8.10;;
76795;SDS011;65745;50.278;18.192;2023-07-09T01:18:53;9.90;;;8.40;;
76795;SDS011;65745;50.278;18.192;2023-07-09T01:21:25;11.10;;;9.50;;
76795;SDS011;65745;50.278;18.192;2023-07-09T01:23:58;11.60;;;10.30;;
76795;SDS011;65745;50.278;18.192;2023-07-09T01:26:41;10.70;;;9.70;;
76795;SDS011;65745;50.278;18.192;2023-07-09T01:29:13;8.30;;;7.50;;
76795;SDS011;65745;50.278;18.192;2023-07-09T01:31:46;9.40;;;8.00;;
76795;SDS011;65745;50.278;18.192;2023-07-09T01:34:20;10.40;;;7.50;;
76795;SDS011;65745;50.278;18.192;2023-07-09T01:36:54;8.30;;;7.40;;
76795;SDS011;65745;50.278;18.192;2023-07-09T01:39:28;8.80;;;7.50;;
76795;SDS011;65745;50.278;18.192;2023-07-09T01:42:00;9.40;;;8.40;;
76795;SDS011;65745;50.278;18.192;2023-07-09T01:44:37;10.60;;;8.50;;
76795;SDS011;65745;50.278;18.192;2023-07-09T01:47:11;9.60;;;8.40;;
76795;SDS011;65745;50.278;18.192;2023-07-09T01:49:44;10.70;;;9.30;;
76795;SDS011;65745;50.278;18.192;2023-07-09T01:52:17;10.40;;;9.40;;
76795;SDS011;65745;50.278;18.192;2023-07-09T01:54:51;13.10;;;11.00;;
76795;SDS011;65745;50.278;18.192;2023-07-09T01:57:24;11.40;;;10.30;;
76795;SDS011;65745;50.278;18.192;2023-07-09T02:00:03;11.30;;;9.50;;
76795;SDS011;65745;50.278;18.192;2023-07-09T02:02:42;10.70;;;9.60;;
76795;SDS011;65745;50.278;18.192;2023-07-09T02:05:17;11.50;;;10.40;;
76795;SDS011;65745;50.278;18.192;2023-07-09T02:07:50;13.60;;;11.00;;
76795;SDS011;65745;50.278;18.192;2023-07-09T02:10:23;13.10;;;11.80;;
76795;SDS011;65745;50.278;18.192;2023-07-09T02:12:56;11.00;;;9.90;;
76795;SDS011;65745;50.278;18.192;2023-07-09T02:15:28;12.00;;;10.80;;
76795;SDS011;65745;50.278;18.192;2023-07-09T02:18:00;11.60;;;10.50;;
76795;SDS011;65745;50.278;18.192;2023-07-09T02:20:32;12.60;;;9.40;;
76795;SDS011;65745;50.278;18.192;2023-07-09T02:23:06;10.50;;;9.40;;
76795;SDS011;65745;50.278;18.192;2023-07-09T02:25:40;10.40;;;9.40;;
76795;SDS011;65745;50.278;18.192;2023-07-09T02:28:12;14.70;;;9.50;;
76795;SDS011;65745;50.278;18.192;2023-07-09T02:30:44;12.50;;;11.20;;
76795;SDS011;65745;50.278;18.192;2023-07-09T02:33:16;13.30;;;11.40;;
76795;SDS011;65745;50.278;18.192;2023-07-09T02:35:49;12.00;;;10.90;;
76795;SDS011;65745;50.278;18.192;2023-07-09T02:38:22;14.50;;;11.50;;
76795;SDS011;65745;50.278;18.192;2023-07-09T02:40:54;13.30;;;11.70;;
76795;SDS011;65745;50.278;18.192;2023-07-09T02:43:26;12.00;;;10.80;;
76795;SDS011;65745;50.278;18.192;2023-07-09T02:45:59;12.40;;;11.20;;
76795;SDS011;65745;50.278;18.192;2023-07-09T02:48:31;12.90;;;11.20;;
76795;SDS011;65745;50.278;18.192;2023-07-09T02:51:04;11.60;;;10.20;;
76795;SDS011;65745;50.278;18.192;2023-07-09T02:53:36;10.20;;;9.20;;
76795;SDS011;65745;50.278;18.192;2023-07-09T02:56:08;9.60;;;8.50;;
76795;SDS011;65745;50.278;18.192;2023-07-09T02:58:40;11.60;;;8.80;;
76795;SDS011;65745;50.278;18.192;2023-07-09T03:01:12;12.70;;;9.80;;
76795;SDS011;65745;50.278;18.192;2023-07-09T03:03:44;11.70;;;9.00;;
76795;SDS011;65745;50.278;18.192;2023-07-09T03:06:19;9.50;;;8.60;;
76795;SDS011;65745;50.278;18.192;2023-07-09T03:08:52;12.30;;;9.10;;
76795;SDS011;65745;50.278;18.192;2023-07-09T03:11:24;10.00;;;8.40;;
76795;SDS011;65745;50.278;18.192;2023-07-09T03:13:58;13.70;;;10.00;;
76795;SDS011;65745;50.278;18.192;2023-07-09T03:16:31;11.00;;;9.80;;
76795;SDS011;65745;50.278;18.192;2023-07-09T03:19:04;11.40;;;10.10;;
76795;SDS011;65745;50.278;18.192;2023-07-09T03:21:37;12.80;;;11.00;;
76795;SDS011;65745;50.278;18.192;2023-07-09T03:24:09;11.50;;;10.30;;
76795;SDS011;65745;50.278;18.192;2023-07-09T03:26:48;10.90;;;9.90;;
76795;SDS011;65745;50.278;18.192;2023-07-09T03:29:20;10.70;;;9.50;;
76795;SDS011;65745;50.278;18.192;2023-07-09T03:31:52;9.70;;;8.80;;
76795;SDS011;65745;50.278;18.192;2023-07-09T03:34:24;10.30;;;9.20;;
76795;SDS011;65745;50.278;18.192;2023-07-09T03:36:57;10.90;;;9.80;;
76795;SDS011;65745;50.278;18.192;2023-07-09T03:39:29;10.70;;;8.90;;
76795;SDS011;65745;50.278;18.192;2023-07-09T03:42:01;11.10;;;9.90;;
76795;SDS011;65745;50.278;18.192;2023-07-09T03:44:33;10.70;;;9.60;;
76795;SDS011;65745;50.278;18.192;2023-07-09T03:47:05;10.40;;;8.50;;
76795;SDS011;65745;50.278;18.192;2023-07-09T03:49:38;9.80;;;8.90;;
76795;SDS011;65745;50.278;18.192;2023-07-09T03:52:11;9.60;;;8.60;;
76795;SDS011;65745;50.278;18.192;2023-07-09T03:54:43;11.20;;;8.10;;
76795;SDS011;65745;50.278;18.192;2023-07-09T03:57:15;10.50;;;8.80;;
76795;SDS011;65745;50.278;18.192;2023-07-09T03:59:47;11.10;;;10.00;;
76795;SDS011;65745;50.278;18.192;2023-07-09T04:02:19;14.30;;;10.70;;
76795;SDS011;65745;50.278;18.192;2023-07-09T04:04:51;12.20;;;11.00;;
76795;SDS011;65745;50.278;18.192;2023-07-09T04:07:23;11.70;;;10.50;;
76795;SDS011;65745;50.278;18.192;2023-07-09T04:17:32;11.80;;;10.50;;
76795;SDS011;65745;50.278;18.192;2023-07-09T04:20:05;10.80;;;9.60;;
76795;SDS011;65745;50.278;18.192;2023-07-09T04:22:39;12.30;;;9.50;;
76795;SDS011;65745;50.278;18.192;2023-07-09T04:25:11;10.10;;;9.10;;
76795;SDS011;65745;50.278;18.192;2023-07-09T04:27:44;10.60;;;9.20;;
76795;SDS011;65745;50.278;18.192;2023-07-09T04:30:16;12.00;;;10.00;;
76795;SDS011;65745;50.278;18.192;2023-07-09T04:32:48;10.30;;;9.20;;
76795;SDS011;65745;50.278;18.192;2023-07-09T04:35:20;10.90;;;8.80;;
76795;SDS011;65745;50.278;18.192;2023-07-09T04:37:52;10.30;;;9.20;;
76795;SDS011;65745;50.278;18.192;2023-07-09T04:40:24;10.90;;;9.80;;
76795;SDS011;65745;50.278;18.192;2023-07-09T04:42:56;11.00;;;8.90;;
76795;SDS011;65745;50.278;18.192;2023-07-09T04:45:29;10.30;;;9.30;;
76795;SDS011;65745;50.278;18.192;2023-07-09T04:48:01;11.10;;;10.00;;
76795;SDS011;65745;50.278;18.192;2023-07-09T04:50:33;13.40;;;9.70;;
76795;SDS011;65745;50.278;18.192;2023-07-09T04:53:05;12.70;;;10.00;;
76795;SDS011;65745;50.278;18.192;2023-07-09T04:55:37;11.30;;;10.00;;
76795;SDS011;65745;50.278;18.192;2023-07-09T04:58:09;11.10;;;9.50;;
76795;SDS011;65745;50.278;18.192;2023-07-09T05:00:42;10.70;;;9.40;;
76795;SDS011;65745;50.278;18.192;2023-07-09T05:03:15;10.30;;;9.10;;
76795;SDS011;65745;50.278;18.192;2023-07-09T05:05:48;10.80;;;8.70;;
76795;SDS011;65745;50.278;18.192;2023-07-09T05:08:21;11.90;;;10.40;;
76795;SDS011;65745;50.278;18.192;2023-07-09T05:10:54;9.40;;;8.50;;
76795;SDS011;65745;50.278;18.192;2023-07-09T05:13:27;10.90;;;9.40;;
76795;SDS011;65745;50.278;18.192;2023-07-09T05:15:59;12.90;;;10.00;;
76795;SDS011;65745;50.278;18.192;2023-07-09T05:18:32;11.60;;;9.40;;
76795;SDS011;65745;50.278;18.192;2023-07-09T05:21:04;10.30;;;9.20;;
76795;SDS011;65745;50.278;18.192;2023-07-09T05:23:36;10.60;;;8.80;;
76795;SDS011;65745;50.278;18.192;2023-07-09T05:26:08;10.40;;;8.40;;
76795;SDS011;65745;50.278;18.192;2023-07-09T05:28:41;8.70;;;7.80;;
76795;SDS011;65745;50.278;18.192;2023-07-09T05:31:13;8.30;;;7.50;;
76795;SDS011;65745;50.278;18.192;2023-07-09T05:33:45;10.50;;;7.40;;
76795;SDS011;65745;50.278;18.192;2023-07-09T05:36:17;8.90;;;6.70;;
76795;SDS011;65745;50.278;18.192;2023-07-09T05:38:50;9.70;;;7.70;;
76795;SDS011;65745;50.278;18.192;2023-07-09T05:41:22;10.50;;;7.30;;
76795;SDS011;65745;50.278;18.192;2023-07-09T05:43:54;7.50;;;6.80;;
76795;SDS011;65745;50.278;18.192;2023-07-09T05:46:26;10.20;;;6.90;;
76795;SDS011;65745;50.278;18.192;2023-07-09T05:48:58;7.50;;;6.80;;
76795;SDS011;65745;50.278;18.192;2023-07-09T05:51:30;8.20;;;7.40;;
76795;SDS011;65745;50.278;18.192;2023-07-09T05:54:02;10.80;;;7.60;;
76795;SDS011;65745;50.278;18.192;2023-07-09T05:56:34;8.40;;;6.60;;
76795;SDS011;65745;50.278;18.192;2023-07-09T05:59:06;7.40;;;6.70;;
76795;SDS011;65745;50.278;18.192;2023-07-09T06:01:39;8.80;;;7.40;;
76795;SDS011;65745;50.278;18.192;2023-07-09T06:04:11;10.60;;;6.30;;
76795;SDS011;65745;50.278;18.192;2023-07-09T06:06:43;7.40;;;6.60;;
76795;SDS011;65745;50.278;18.192;2023-07-09T06:09:15;9.30;;;6.40;;
76795;SDS011;65745;50.278;18.192;2023-07-09T06:11:47;8.10;;;6.20;;
76795;SDS011;65745;50.278;18.192;2023-07-09T06:14:20;7.30;;;5.60;;
76795;SDS011;65745;50.278;18.192;2023-07-09T06:16:52;6.60;;;6.00;;
76795;SDS011;65745;50.278;18.192;2023-07-09T06:19:24;6.30;;;5.40;;
76795;SDS011;65745;50.278;18.192;2023-07-09T06:21:56;9.30;;;6.30;;
76795;SDS011;65745;50.278;18.192;2023-07-09T06:24:28;6.40;;;5.80;;
76795;SDS011;65745;50.278;18.192;2023-07-09T06:27:00;9.90;;;6.60;;
76795;SDS011;65745;50.278;18.192;2023-07-09T06:29:33;6.70;;;6.10;;
76795;SDS011;65745;50.278;18.192;2023-07-09T06:32:06;7.20;;;6.50;;
76795;SDS011;65745;50.278;18.192;2023-07-09T06:34:38;8.30;;;6.10;;
76795;SDS011;65745;50.278;18.192;2023-07-09T06:37:10;7.80;;;6.20;;
76795;SDS011;65745;50.278;18.192;2023-07-09T06:39:42;7.40;;;6.70;;
76795;SDS011;65745;50.278;18.192;2023-07-09T06:42:15;6.60;;;5.90;;
76795;SDS011;65745;50.278;18.192;2023-07-09T06:45:02;5.80;;;5.00;;
76795;SDS011;65745;50.278;18.192;2023-07-09T06:47:35;5.90;;;5.20;;
76795;SDS011;65745;50.278;18.192;2023-07-09T06:50:07;8.00;;;5.70;;
76795;SDS011;65745;50.278;18.192;2023-07-09T06:52:40;5.80;;;5.10;;
76795;SDS011;65745;50.278;18.192;2023-07-09T06:55:12;6.40;;;5.10;;
76795;SDS011;65745;50.278;18.192;2023-07-09T06:57:44;7.20;;;5.20;;
76795;SDS011;65745;50.278;18.192;2023-07-09T07:00:17;6.70;;;5.10;;
76795;SDS011;65745;50.278;18.192;2023-07-09T07:02:49;7.90;;;6.10;;
76795;SDS011;65745;50.278;18.192;2023-07-09T07:05:21;7.50;;;6.00;;
76795;SDS011;65745;50.278;18.192;2023-07-09T07:07:53;6.90;;;5.30;;
76795;SDS011;65745;50.278;18.192;2023-07-09T07:10:25;7.80;;;6.00;;
76795;SDS011;65745;50.278;18.192;2023-07-09T07:12:59;6.20;;;4.90;;
76795;SDS011;65745;50.278;18.192;2023-07-09T07:15:31;7.60;;;6.30;;
76795;SDS011;65745;50.278;18.192;2023-07-09T07:18:03;7.10;;;5.90;;
76795;SDS011;65745;50.278;18.192;2023-07-09T07:20:35;6.10;;;5.20;;
76795;SDS011;65745;50.278;18.192;2023-07-09T07:23:08;10.40;;;5.80;;
76795;SDS011;65745;50.278;18.192;2023-07-09T07:25:40;7.00;;;5.20;;
76795;SDS011;65745;50.278;18.192;2023-07-09T07:28:13;6.00;;;5.20;;
76795;SDS011;65745;50.278;18.192;2023-07-09T07:30:45;8.20;;;5.30;;
76795;SDS011;65745;50.278;18.192;2023-07-09T07:33:27;6.90;;;5.70;;
76795;SDS011;65745;50.278;18.192;2023-07-09T07:35:59;6.10;;;5.20;;
76795;SDS011;65745;50.278;18.192;2023-07-09T07:38:53;5.50;;;5.00;;
76795;SDS011;65745;50.278;18.192;2023-07-09T07:41:26;7.10;;;5.50;;
76795;SDS011;65745;50.278;18.192;2023-07-09T07:43:58;7.50;;;5.70;;
76795;SDS011;65745;50.278;18.192;2023-07-09T07:46:32;7.50;;;6.10;;
76795;SDS011;65745;50.278;18.192;2023-07-09T07:49:04;9.00;;;5.50;;
76795;SDS011;65745;50.278;18.192;2023-07-09T07:51:36;6.10;;;5.40;;
76795;SDS011;65745;50.278;18.192;2023-07-09T07:54:08;7.40;;;5.00;;
76795;SDS011;65745;50.278;18.192;2023-07-09T07:56:40;6.70;;;5.90;;
76795;SDS011;65745;50.278;18.192;2023-07-09T07:59:13;6.10;;;5.40;;
76795;SDS011;65745;50.278;18.192;2023-07-09T08:01:47;5.90;;;4.90;;
76795;SDS011;65745;50.278;18.192;2023-07-09T08:04:19;7.10;;;5.60;;
76795;SDS011;65745;50.278;18.192;2023-07-09T08:06:51;7.30;;;6.50;;
76795;SDS011;65745;50.278;18.192;2023-07-09T08:09:23;6.20;;;5.60;;
76795;SDS011;65745;50.278;18.192;2023-07-09T08:11:55;7.10;;;5.40;;
76795;SDS011;65745;50.278;18.192;2023-07-09T08:14:27;9.40;;;6.00;;
76795;SDS011;65745;50.278;18.192;2023-07-09T08:16:59;6.80;;;5.50;;
76795;SDS011;65745;50.278;18.192;2023-07-09T08:19:32;6.40;;;5.00;;
76795;SDS011;65745;50.278;18.192;2023-07-09T08:22:14;5.00;;;4.50;;
76795;SDS011;65745;50.278;18.192;2023-07-09T08:24:47;5.60;;;4.60;;
76795;SDS011;65745;50.278;18.192;2023-07-09T08:27:19;4.90;;;4.30;;
76795;SDS011;65745;50.278;18.192;2023-07-09T08:29:51;5.00;;;4.40;;
76795;SDS011;65745;50.278;18.192;2023-07-09T08:32:23;5.80;;;4.50;;
76795;SDS011;65745;50.278;18.192;2023-07-09T08:34:58;5.20;;;4.70;;
76795;SDS011;65745;50.278;18.192;2023-07-09T08:37:51;5.10;;;4.60;;
76795;SDS011;65745;50.278;18.192;2023-07-09T08:40:23;7.30;;;4.40;;
76795;SDS011;65745;50.278;18.192;2023-07-09T08:42:56;4.80;;;4.20;;
76795;SDS011;65745;50.278;18.192;2023-07-09T08:45:38;7.80;;;4.60;;
76795;SDS011;65745;50.278;18.192;2023-07-09T08:48:21;5.70;;;4.60;;
76795;SDS011;65745;50.278;18.192;2023-07-09T08:50:59;5.90;;;4.30;;
76795;SDS011;65745;50.278;18.192;2023-07-09T08:53:39;5.40;;;4.80;;
76795;SDS011;65745;50.278;18.192;2023-07-09T08:56:16;5.00;;;4.50;;
76795;SDS011;65745;50.278;18.192;2023-07-09T08:58:50;5.90;;;4.80;;
76795;SDS011;65745;50.278;18.192;2023-07-09T09:01:25;5.30;;;4.10;;
76795;SDS011;65745;50.278;18.192;2023-07-09T09:04:04;4.60;;;4.20;;
76795;SDS011;65745;50.278;18.192;2023-07-09T09:06:42;5.70;;;4.10;;
76795;SDS011;65745;50.278;18.192;2023-07-09T09:09:21;5.90;;;4.20;;
76795;SDS011;65745;50.278;18.192;2023-07-09T09:11:59;5.90;;;4.20;;
76795;SDS011;65745;50.278;18.192;2023-07-09T09:14:44;4.30;;;3.90;;
76795;SDS011;65745;50.278;18.192;2023-07-09T09:17:21;4.60;;;4.00;;
76795;SDS011;65745;50.278;18.192;2023-07-09T09:19:59;5.50;;;4.30;;
76795;SDS011;65745;50.278;18.192;2023-07-09T09:22:36;6.30;;;4.10;;
76795;SDS011;65745;50.278;18.192;2023-07-09T09:25:18;5.00;;;4.30;;
76795;SDS011;65745;50.278;18.192;2023-07-09T09:27:58;4.70;;;4.10;;
76795;SDS011;65745;50.278;18.192;2023-07-09T09:30:32;5.90;;;3.50;;
76795;SDS011;65745;50.278;18.192;2023-07-09T09:33:05;4.00;;;3.60;;
76795;SDS011;65745;50.278;18.192;2023-07-09T09:35:42;4.50;;;3.80;;
76795;SDS011;65745;50.278;18.192;2023-07-09T09:38:17;4.20;;;3.80;;
76795;SDS011;65745;50.278;18.192;2023-07-09T09:40:51;4.00;;;3.60;;
76795;SDS011;65745;50.278;18.192;2023-07-09T09:43:33;4.40;;;4.00;;
76795;SDS011;65745;50.278;18.192;2023-07-09T09:46:06;6.30;;;3.50;;
76795;SDS011;65745;50.278;18.192;2023-07-09T09:51:14;4.80;;;3.70;;
76795;SDS011;65745;50.278;18.192;2023-07-09T09:53:48;5.10;;;3.30;;
76795;SDS011;65745;50.278;18.192;2023-07-09T09:56:26;4.60;;;3.60;;
76795;SDS011;65745;50.278;18.192;2023-07-09T09:58:59;7.10;;;4.00;;
76795;SDS011;65745;50.278;18.192;2023-07-09T10:01:33;4.20;;;3.70;;
76795;SDS011;65745;50.278;18.192;2023-07-09T10:04:08;4.40;;;3.90;;
76795;SDS011;65745;50.278;18.192;2023-07-09T10:06:48;4.00;;;3.60;;
76795;SDS011;65745;50.278;18.192;2023-07-09T10:09:29;5.00;;;3.60;;
76795;SDS011;65745;50.278;18.192;2023-07-09T10:12:21;4.60;;;3.70;;
76795;SDS011;65745;50.278;18.192;2023-07-09T10:15:11;5.90;;;4.00;;
76795;SDS011;65745;50.278;18.192;2023-07-09T10:17:56;4.50;;;3.90;;
76795;SDS011;65745;50.278;18.192;2023-07-09T10:20:34;5.00;;;4.00;;
76795;SDS011;65745;50.278;18.192;2023-07-09T10:23:18;5.20;;;4.30;;
76795;SDS011;65745;50.278;18.192;2023-07-09T10:25:57;4.30;;;3.90;;
76795;SDS011;65745;50.278;18.192;2023-07-09T10:28:50;4.50;;;4.10;;
76795;SDS011;65745;50.278;18.192;2023-07-09T10:31:46;4.60;;;4.00;;
76795;SDS011;65745;50.278;18.192;2023-07-09T10:34:27;4.40;;;3.90;;
76795;SDS011;65745;50.278;18.192;2023-07-09T10:37:08;4.60;;;3.80;;
76795;SDS011;65745;50.278;18.192;2023-07-09T10:39:53;4.80;;;4.10;;
76795;SDS011;65745;50.278;18.192;2023-07-09T10:42:29;4.90;;;4.30;;
76795;SDS011;65745;50.278;18.192;2023-07-09T10:45:07;5.10;;;4.00;;
76795;SDS011;65745;50.278;18.192;2023-07-09T10:47:43;4.70;;;3.90;;
76795;SDS011;65745;50.278;18.192;2023-07-09T10:50:21;4.40;;;3.80;;
76795;SDS011;65745;50.278;18.192;2023-07-09T10:53:00;4.00;;;3.60;;
76795;SDS011;65745;50.278;18.192;2023-07-09T10:55:39;6.00;;;3.90;;
76795;SDS011;65745;50.278;18.192;2023-07-09T10:58:24;5.00;;;4.00;;
76795;SDS011;65745;50.278;18.192;2023-07-09T11:01:02;5.20;;;3.90;;
76795;SDS011;65745;50.278;18.192;2023-07-09T11:03:40;4.50;;;4.00;;
76795;SDS011;65745;50.278;18.192;2023-07-09T11:06:20;4.40;;;3.90;;
76795;SDS011;65745;50.278;18.192;2023-07-09T11:08:57;6.30;;;3.90;;
76795;SDS011;65745;50.278;18.192;2023-07-09T11:11:33;6.00;;;3.80;;
76795;SDS011;65745;50.278;18.192;2023-07-09T11:14:13;5.80;;;3.90;;
76795;SDS011;65745;50.278;18.192;2023-07-09T11:16:56;5.30;;;3.90;;
76795;SDS011;65745;50.278;18.192;2023-07-09T11:19:30;4.30;;;3.80;;
76795;SDS011;65745;50.278;18.192;2023-07-09T11:22:12;5.50;;;4.20;;
76795;SDS011;65745;50.278;18.192;2023-07-09T11:24:50;4.50;;;3.80;;
76795;SDS011;65745;50.278;18.192;2023-07-09T11:27:44;6.40;;;3.70;;
76795;SDS011;65745;50.278;18.192;2023-07-09T11:30:21;4.90;;;4.00;;
76795;SDS011;65745;50.278;18.192;2023-07-09T11:32:56;3.90;;;3.50;;
76795;SDS011;65745;50.278;18.192;2023-07-09T11:35:50;4.70;;;4.00;;
76795;SDS011;65745;50.278;18.192;2023-07-09T11:38:26;4.50;;;4.00;;
76795;SDS011;65745;50.278;18.192;2023-07-09T11:44:12;4.80;;;4.20;;
76795;SDS011;65745;50.278;18.192;2023-07-09T11:46:51;5.10;;;3.80;;
76795;SDS011;65745;50.278;18.192;2023-07-09T11:49:34;5.30;;;3.80;;
76795;SDS011;65745;50.278;18.192;2023-07-09T11:52:16;4.90;;;3.80;;
76795;SDS011;65745;50.278;18.192;2023-07-09T11:54:52;4.40;;;3.90;;
76795;SDS011;65745;50.278;18.192;2023-07-09T11:57:25;4.00;;;3.70;;
76795;SDS011;65745;50.278;18.192;2023-07-09T12:00:00;5.10;;;4.10;;
76795;SDS011;65745;50.278;18.192;2023-07-09T12:02:40;5.50;;;4.10;;
76795;SDS011;65745;50.278;18.192;2023-07-09T12:05:12;4.70;;;4.20;;
76795;SDS011;65745;50.278;18.192;2023-07-09T12:07:49;4.40;;;4.00;;
76795;SDS011;65745;50.278;18.192;2023-07-09T12:10:22;4.80;;;4.30;;
76795;SDS011;65745;50.278;18.192;2023-07-09T12:12:57;4.50;;;4.10;;
76795;SDS011;65745;50.278;18.192;2023-07-09T12:15:30;5.20;;;4.70;;
76795;SDS011;65745;50.278;18.192;2023-07-09T12:18:08;4.40;;;4.00;;
76795;SDS011;65745;50.278;18.192;2023-07-09T12:20:51;5.80;;;4.10;;
76795;SDS011;65745;50.278;18.192;2023-07-09T12:23:25;4.70;;;3.90;;
76795;SDS011;65745;50.278;18.192;2023-07-09T12:26:01;5.80;;;3.90;;
76795;SDS011;65745;50.278;18.192;2023-07-09T12:28:34;4.40;;;3.80;;
76795;SDS011;65745;50.278;18.192;2023-07-09T12:31:11;5.20;;;4.20;;
76795;SDS011;65745;50.278;18.192;2023-07-09T12:33:48;4.80;;;4.40;;
76795;SDS011;65745;50.278;18.192;2023-07-09T12:36:23;4.70;;;3.80;;
76795;SDS011;65745;50.278;18.192;2023-07-09T12:39:01;5.90;;;4.20;;
76795;SDS011;65745;50.278;18.192;2023-07-09T12:41:34;4.80;;;4.00;;
76795;SDS011;65745;50.278;18.192;2023-07-09T12:44:13;5.90;;;4.00;;
76795;SDS011;65745;50.278;18.192;2023-07-09T12:46:48;4.90;;;4.30;;
76795;SDS011;65745;50.278;18.192;2023-07-09T12:49:23;7.20;;;4.70;;
76795;SDS011;65745;50.278;18.192;2023-07-09T12:51:57;5.20;;;4.40;;
76795;SDS011;65745;50.278;18.192;2023-07-09T12:54:31;4.80;;;4.30;;
76795;SDS011;65745;50.278;18.192;2023-07-09T12:57:08;5.10;;;4.40;;
76795;SDS011;65745;50.278;18.192;2023-07-09T12:59:46;5.60;;;4.20;;
76795;SDS011;65745;50.278;18.192;2023-07-09T13:02:19;4.90;;;4.20;;
76795;SDS011;65745;50.278;18.192;2023-07-09T13:04:59;5.10;;;4.00;;
76795;SDS011;65745;50.278;18.192;2023-07-09T13:07:36;5.30;;;4.10;;
76795;SDS011;65745;50.278;18.192;2023-07-09T13:10:14;5.30;;;4.10;;
76795;SDS011;65745;50.278;18.192;2023-07-09T13:12:49;4.30;;;3.90;;
76795;SDS011;65745;50.278;18.192;2023-07-09T13:15:27;4.70;;;4.10;;
76795;SDS011;65745;50.278;18.192;2023-07-09T13:18:01;4.40;;;3.80;;
76795;SDS011;65745;50.278;18.192;2023-07-09T13:20:37;4.90;;;4.40;;
76795;SDS011;65745;50.278;18.192;2023-07-09T13:23:13;4.50;;;4.10;;
76795;SDS011;65745;50.278;18.192;2023-07-09T13:25:47;4.60;;;4.10;;
76795;SDS011;65745;50.278;18.192;2023-07-09T13:28:20;4.80;;;4.10;;
76795;SDS011;65745;50.278;18.192;2023-07-09T13:30:55;5.20;;;4.00;;
76795;SDS011;65745;50.278;18.192;2023-07-09T13:33:30;4.50;;;4.10;;
76795;SDS011;65745;50.278;18.192;2023-07-09T13:36:02;4.50;;;4.10;;
76795;SDS011;65745;50.278;18.192;2023-07-09T13:38:36;4.80;;;4.40;;
76795;SDS011;65745;50.278;18.192;2023-07-09T13:41:12;4.20;;;3.80;;
76795;SDS011;65745;50.278;18.192;2023-07-09T13:43:47;4.50;;;4.10;;
76795;SDS011;65745;50.278;18.192;2023-07-09T13:46:20;4.20;;;3.90;;
76795;SDS011;65745;50.278;18.192;2023-07-09T13:51:25;5.20;;;4.30;;
76795;SDS011;65745;50.278;18.192;2023-07-09T13:53:58;4.30;;;3.90;;
76795;SDS011;65745;50.278;18.192;2023-07-09T13:56:32;4.50;;;4.10;;
76795;SDS011;65745;50.278;18.192;2023-07-09T13:59:08;4.50;;;4.10;;
76795;SDS011;65745;50.278;18.192;2023-07-09T14:01:45;4.80;;;3.90;;
76795;SDS011;65745;50.278;18.192;2023-07-09T14:04:20;5.30;;;4.20;;
76795;SDS011;65745;50.278;18.192;2023-07-09T14:06:52;5.60;;;4.50;;
76795;SDS011;65745;50.278;18.192;2023-07-09T14:09:25;4.40;;;4.00;;
76795;SDS011;65745;50.278;18.192;2023-07-09T14:11:57;5.30;;;4.60;;
76795;SDS011;65745;50.278;18.192;2023-07-09T14:14:32;5.40;;;4.40;;
76795;SDS011;65745;50.278;18.192;2023-07-09T14:17:04;4.60;;;4.20;;
76795;SDS011;65745;50.278;18.192;2023-07-09T14:19:38;4.80;;;4.00;;
76795;SDS011;65745;50.278;18.192;2023-07-09T14:22:19;4.80;;;3.80;;
76795;SDS011;65745;50.278;18.192;2023-07-09T14:24:55;4.70;;;4.30;;
76795;SDS011;65745;50.278;18.192;2023-07-09T14:27:27;5.00;;;4.40;;
76795;SDS011;65745;50.278;18.192;2023-07-09T14:30:02;4.30;;;3.90;;
76795;SDS011;65745;50.278;18.192;2023-07-09T14:32:36;6.80;;;4.00;;
76795;SDS011;65745;50.278;18.192;2023-07-09T14:37:43;5.60;;;4.00;;
76795;SDS011;65745;50.278;18.192;2023-07-09T14:40:17;4.60;;;4.00;;
76795;SDS011;65745;50.278;18.192;2023-07-09T14:42:50;5.60;;;4.40;;
76795;SDS011;65745;50.278;18.192;2023-07-09T14:45:22;5.50;;;4.20;;
76795;SDS011;65745;50.278;18.192;2023-07-09T14:47:57;4.80;;;4.30;;
76795;SDS011;65745;50.278;18.192;2023-07-09T14:50:29;4.20;;;3.80;;
76795;SDS011;65745;50.278;18.192;2023-07-09T14:53:02;4.30;;;3.90;;
76795;SDS011;65745;50.278;18.192;2023-07-09T14:55:35;4.80;;;4.40;;
76795;SDS011;65745;50.278;18.192;2023-07-09T14:58:16;5.10;;;4.30;;
76795;SDS011;65745;50.278;18.192;2023-07-09T15:00:49;5.90;;;3.80;;
76795;SDS011;65745;50.278;18.192;2023-07-09T15:03:24;4.20;;;3.80;;
76795;SDS011;65745;50.278;18.192;2023-07-09T15:05:57;5.10;;;4.10;;
76795;SDS011;65745;50.278;18.192;2023-07-09T15:08:31;4.20;;;3.80;;
76795;SDS011;65745;50.278;18.192;2023-07-09T15:11:03;4.50;;;3.70;;
76795;SDS011;65745;50.278;18.192;2023-07-09T15:13:36;4.10;;;3.70;;
76795;SDS011;65745;50.278;18.192;2023-07-09T15:16:09;6.40;;;4.30;;
76795;SDS011;65745;50.278;18.192;2023-07-09T15:18:41;5.00;;;3.90;;
76795;SDS011;65745;50.278;18.192;2023-07-09T15:21:13;4.10;;;3.70;;
76795;SDS011;65745;50.278;18.192;2023-07-09T15:23:45;4.80;;;3.70;;
76795;SDS011;65745;50.278;18.192;2023-07-09T15:26:17;5.60;;;4.20;;
76795;SDS011;65745;50.278;18.192;2023-07-09T15:28:49;4.80;;;3.80;;
76795;SDS011;65745;50.278;18.192;2023-07-09T15:31:21;5.20;;;3.70;;
76795;SDS011;65745;50.278;18.192;2023-07-09T15:33:53;4.50;;;4.10;;
76795;SDS011;65745;50.278;18.192;2023-07-09T15:36:25;5.10;;;4.20;;